Time;durP1;ratioP1;P1;durP2;ratioP2;P2;SDS_P1;SDS_P2;PMS_P1;PMS_P2;Temp;Humidity;BMP_temperature;BMP_pressure;BME280_temperature;BME280_humidity;BME280_pressure;Samples;Min_cycle;Max_cycle;Signal;HPM_P1;HPM_P2
2021/03/14 00:02:14;;;;;;;;;;;9.00;99.90;;;;;;5067146;28;19908;-75
2021/03/14 00:04:40;;;;;;;;;;;8.70;99.90;;;;;;5053671;28;19995;-75
2021/03/14 00:07:06;;;;;;;;;;;8.90;99.90;;;;;;5035853;28;19948;-73
2021/03/14 00:09:32;;;;;;;;;;;8.80;99.90;;;;;;5053443;28;19936;-74
2021/03/14 00:11:58;;;;;;;;;;;8.90;99.90;;;;;;5053037;28;19912;-71
2021/03/14 00:14:24;;;;;;;;;;;8.90;99.90;;;;;;5035668;28;19912;-70
2021/03/14 00:16:51;;;;;;;;;;;8.80;99.90;;;;;;5040469;28;19923;-71
2021/03/14 00:19:17;;;;;;;;;;;8.90;99.90;;;;;;5052680;28;20000;-71
2021/03/14 00:21:42;;;;;;;;;;;8.80;99.90;;;;;;5051875;28;20327;-71
2021/03/14 00:24:08;;;;;;;;;;;8.80;99.90;;;;;;5052784;28;19995;-73
2021/03/14 00:26:33;;;;;;;;;;;8.70;99.90;;;;;;5052721;28;19905;-71
2021/03/14 00:28:59;;;;;;;;;;;8.70;99.90;;;;;;5053100;28;19956;-71
2021/03/14 00:31:25;;;;;;;;;;;8.70;99.90;;;;;;5065537;28;20362;-70
2021/03/14 00:33:50;;;;;;;;;;;8.70;99.90;;;;;;5054594;28;19923;-69
2021/03/14 00:36:16;;;;;;;;;;;8.70;99.90;;;;;;5053362;28;20312;-70
2021/03/14 00:38:41;;;;;;;;;;;8.70;99.90;;;;;;5052449;28;19931;-69
2021/03/14 00:41:07;;;;;;;;;;;8.70;99.90;;;;;;5053154;28;19958;-69
2021/03/14 00:43:33;;;;;;;;;;;8.40;99.90;;;;;;5053228;28;19908;-71
2021/03/14 00:45:58;;;;;;;;;;;8.70;99.90;;;;;;5053010;28;19904;-69
2021/03/14 00:48:24;;;;;;;;;;;8.60;99.90;;;;;;5052380;28;19904;-69
2021/03/14 00:50:49;;;;;;;;;;;8.60;99.90;;;;;;5052360;28;19912;-70
2021/03/14 00:53:15;;;;;;;;;;;8.60;99.90;;;;;;5052683;28;19916;-70
2021/03/14 00:55:41;;;;;;;;;;;8.60;99.90;;;;;;5052226;28;20355;-72
2021/03/14 00:58:06;;;;;;;;;;;8.60;99.90;;;;;;5052118;28;19908;-73
2021/03/14 01:00:32;;;;;;;;;;;8.60;99.90;;;;;;5053593;28;19978;-74
2021/03/14 01:02:58;;;;;;;;;;;8.50;99.90;;;;;;5052690;28;19912;-71
2021/03/14 01:05:23;;;;;;;;;;;8.60;99.90;;;;;;5034710;28;19911;-71
2021/03/14 01:07:49;;;;;;;;;;;8.50;99.90;;;;;;5052401;28;19905;-72
2021/03/14 01:10:15;;;;;;;;;;;8.50;99.90;;;;;;5054349;28;20427;-69
2021/03/14 01:12:41;;;;;;;;;;;8.50;99.90;;;;;;5056806;28;19967;-70
2021/03/14 01:15:09;;;;;;;;;;;8.00;99.90;;;;;;5051775;28;19908;-71
2021/03/14 01:17:36;;;;;;;;;;;8.60;99.90;;;;;;5051923;28;19920;-71
2021/03/14 01:20:03;;;;;;;;;;;8.50;99.90;;;;;;5053410;28;20347;-69
2021/03/14 01:22:29;;;;;;;;;;;8.50;99.90;;;;;;5053012;28;19908;-69
2021/03/14 01:24:54;;;;;;;;;;;8.50;99.90;;;;;;5051440;28;19958;-69
2021/03/14 01:27:20;;;;;;;;;;;8.70;99.90;;;;;;5060040;28;20377;-69
2021/03/14 01:29:46;;;;;;;;;;;8.60;99.90;;;;;;5059021;28;19909;-69
2021/03/14 01:32:11;;;;;;;;;;;8.60;99.90;;;;;;5063072;28;19961;-69
2021/03/14 01:34:37;;;;;;;;;;;8.70;99.90;;;;;;5059309;28;20327;-70
2021/03/14 01:37:02;;;;;;;;;;;8.70;99.90;;;;;;5056071;28;20429;-68
2021/03/14 01:39:28;;;;;;;;;;;8.60;99.90;;;;;;5052061;28;19904;-71
2021/03/14 01:41:53;;;;;;;;;;;8.60;99.90;;;;;;5051889;28;20012;-71
2021/03/14 01:44:19;;;;;;;;;;;8.60;99.90;;;;;;5052342;28;19904;-73
2021/03/14 01:46:45;;;;;;;;;;;8.60;99.90;;;;;;5037000;28;20003;-70
2021/03/14 01:49:10;;;;;;;;;;;8.30;99.90;;;;;;5053512;28;20333;-73
2021/03/14 01:51:36;;;;;;;;;;;8.60;99.90;;;;;;5053059;28;19920;-71
2021/03/14 01:54:02;;;;;;;;;;;8.50;99.90;;;;;;5052316;28;20012;-72
2021/03/14 01:56:27;;;;;;;;;;;8.60;99.90;;;;;;5051872;28;19904;-72
2021/03/14 01:58:54;;;;;;;;;;;8.60;99.90;;;;;;5051926;28;19905;-72
2021/03/14 02:01:20;;;;;;;;;;;8.50;99.90;;;;;;5061179;28;20019;-75
2021/03/14 02:03:46;;;;;;;;;;;8.50;99.90;;;;;;5064654;28;19955;-75
2021/03/14 02:06:11;;;;;;;;;;;8.60;99.90;;;;;;5054101;28;20355;-77
2021/03/14 02:08:37;;;;;;;;;;;8.80;99.90;;;;;;5051810;28;19913;-74
2021/03/14 02:11:03;;;;;;;;;;;8.60;99.90;;;;;;5055414;28;19952;-71
2021/03/14 02:13:28;;;;;;;;;;;8.60;99.90;;;;;;5055949;28;19913;-73
2021/03/14 02:15:59;;;;;;;;;;;8.70;99.90;;;;;;5037457;28;19927;-71
2021/03/14 02:18:26;;;;;;;;;;;8.50;99.90;;;;;;5055861;28;19912;-72
2021/03/14 02:20:52;;;;;;;;;;;8.50;99.90;;;;;;5055888;28;19912;-72
2021/03/14 02:23:20;;;;;;;;;;;8.50;99.90;;;;;;5037428;28;19905;-72
2021/03/14 02:25:50;;;;;;;;;;;8.40;99.90;;;;;;5055401;28;20038;-71
2021/03/14 02:28:16;;;;;;;;;;;8.40;99.90;;;;;;5055955;28;19909;-70
2021/03/14 02:30:42;;;;;;;;;;;8.20;99.90;;;;;;5064859;28;19904;-72
2021/03/14 02:33:09;;;;;;;;;;;8.50;99.90;;;;;;5063209;28;19958;-72
2021/03/14 02:35:35;;;;;;;;;;;8.50;99.90;;;;;;5037143;28;19904;-72
2021/03/14 02:38:01;;;;;;;;;;;8.50;99.90;;;;;;5055019;28;19912;-72
2021/03/14 02:40:27;;;;;;;;;;;8.40;99.90;;;;;;5054691;28;19912;-72
2021/03/14 02:42:53;;;;;;;;;;;8.50;99.90;;;;;;5055479;28;20263;-72
2021/03/14 02:45:19;;;;;;;;;;;8.40;99.90;;;;;;5037134;28;19905;-72
2021/03/14 02:47:44;;;;;;;;;;;8.40;99.90;;;;;;5055087;28;19915;-71
2021/03/14 02:50:16;;;;;;;;;;;8.40;99.90;;;;;;5055120;28;20361;-71
2021/03/14 02:52:42;;;;;;;;;;;8.40;99.90;;;;;;5054911;28;19905;-71
2021/03/14 02:55:09;;;;;;;;;;;8.40;99.90;;;;;;5054824;28;20251;-71
2021/03/14 02:57:35;;;;;;;;;;;8.40;99.90;;;;;;5055328;28;19909;-72
2021/03/14 03:00:00;;;;;;;;;;;8.40;99.90;;;;;;5055477;28;19904;-72
2021/03/14 03:02:27;;;;;;;;;;;8.30;99.90;;;;;;5036641;28;19915;-73
2021/03/14 03:04:53;;;;;;;;;;;8.30;99.90;;;;;;5054542;28;19908;-70
2021/03/14 03:07:19;;;;;;;;;;;8.50;99.90;;;;;;5055538;28;19957;-69
2021/03/14 03:09:46;;;;;;;;;;;8.50;99.90;;;;;;5055467;28;19905;-69
2021/03/14 03:12:12;;;;;;;;;;;8.50;99.90;;;;;;5037030;28;19905;-68
2021/03/14 03:14:38;;;;;;;;;;;8.40;99.90;;;;;;5054939;28;19916;-69
2021/03/14 03:17:04;;;;;;;;;;;8.40;99.90;;;;;;5065424;28;20396;-70
2021/03/14 03:19:30;;;;;;;;;;;8.40;99.90;;;;;;5054656;28;20400;-69
2021/03/14 03:21:56;;;;;;;;;;;8.50;99.90;;;;;;5055324;28;19944;-70
2021/03/14 03:24:21;;;;;;;;;;;8.50;99.90;;;;;;5054935;28;20011;-70
2021/03/14 03:26:48;;;;;;;;;;;7.70;99.90;;;;;;5054507;28;20277;-69
2021/03/14 03:29:14;;;;;;;;;;;8.40;99.90;;;;;;5055205;28;20389;-71
2021/03/14 03:31:40;;;;;;;;;;;8.40;99.90;;;;;;5068460;28;20324;-70
2021/03/14 03:34:09;;;;;;;;;;;8.30;99.90;;;;;;5054241;28;19920;-69
2021/03/14 03:36:35;;;;;;;;;;;8.40;99.90;;;;;;5036913;28;19904;-70
2021/03/14 03:39:01;;;;;;;;;;;9.00;99.90;;;;;;5054994;28;20261;-70
2021/03/14 03:41:27;;;;;;;;;;;8.50;99.90;;;;;;5054697;28;19908;-69
2021/03/14 03:43:54;;;;;;;;;;;8.50;99.90;;;;;;5054854;28;20383;-70
2021/03/14 03:46:20;;;;;;;;;;;8.60;99.90;;;;;;5054709;28;19904;-69
2021/03/14 03:48:50;;;;;;;;;;;8.60;99.90;;;;;;5055000;28;20409;-70
2021/03/14 03:51:26;;;;;;;;;;;8.70;99.90;;;;;;5054243;28;19909;-69
2021/03/14 03:53:52;;;;;;;;;;;8.70;99.90;;;;;;5054059;28;20247;-69
2021/03/14 03:56:18;;;;;;;;;;;8.40;99.90;;;;;;5054534;28;19913;-70
2021/03/14 03:58:44;;;;;;;;;;;8.70;99.90;;;;;;5054686;28;19993;-70
2021/03/14 04:01:10;;;;;;;;;;;8.70;99.90;;;;;;5053893;28;19911;-69
2021/03/14 04:03:37;;;;;;;;;;;8.20;99.90;;;;;;5054661;28;19927;-70
2021/03/14 04:06:04;;;;;;;;;;;8.70;99.90;;;;;;5054330;28;19905;-70
2021/03/14 04:08:30;;;;;;;;;;;8.70;99.90;;;;;;5053689;28;19915;-70
2021/03/14 04:10:56;;;;;;;;;;;8.80;99.90;;;;;;5036053;28;19905;-70
2021/03/14 04:13:22;;;;;;;;;;;8.70;99.90;;;;;;5054049;28;19919;-69
2021/03/14 04:15:48;;;;;;;;;;;8.70;99.90;;;;;;5053993;28;20011;-70
2021/03/14 04:18:14;;;;;;;;;;;8.70;99.90;;;;;;5053756;28;20339;-69
2021/03/14 04:20:40;;;;;;;;;;;8.60;99.90;;;;;;5054218;28;20266;-69
2021/03/14 04:23:07;;;;;;;;;;;8.30;99.90;;;;;;5053680;28;19904;-69
2021/03/14 04:25:33;;;;;;;;;;;8.60;99.90;;;;;;5054161;28;19909;-69
2021/03/14 04:27:59;;;;;;;;;;;8.60;99.90;;;;;;5053907;28;19911;-69
2021/03/14 04:30:26;;;;;;;;;;;8.60;99.90;;;;;;5057119;28;19912;-69
2021/03/14 04:32:52;;;;;;;;;;;8.60;99.90;;;;;;5052806;28;19967;-68
2021/03/14 04:35:18;;;;;;;;;;;8.70;99.90;;;;;;5053444;28;19992;-69
2021/03/14 04:37:44;;;;;;;;;;;8.70;99.90;;;;;;5036401;28;20011;-69
2021/03/14 04:40:11;;;;;;;;;;;8.70;99.90;;;;;;5054120;28;20347;-69
2021/03/14 04:42:38;;;;;;;;;;;8.70;99.90;;;;;;5053642;28;19995;-69
2021/03/14 04:45:04;;;;;;;;;;;8.70;99.90;;;;;;5053429;28;19905;-69
2021/03/14 04:47:30;;;;;;;;;;;8.70;99.90;;;;;;5053317;28;19951;-69
2021/03/14 04:49:55;;;;;;;;;;;8.70;99.90;;;;;;5053182;28;20248;-69
2021/03/14 04:52:21;;;;;;;;;;;8.70;99.90;;;;;;5053081;28;19904;-69
2021/03/14 04:54:49;;;;;;;;;;;8.60;99.90;;;;;;5053339;28;19912;-72
2021/03/14 04:57:19;;;;;;;;;;;8.60;99.90;;;;;;5052885;28;20274;-70
2021/03/14 04:59:45;;;;;;;;;;;8.70;99.90;;;;;;5035725;28;19987;-71
2021/03/14 05:02:14;;;;;;;;;;;8.60;99.90;;;;;;5053260;28;19944;-71
2021/03/14 05:04:42;;;;;;;;;;;8.60;99.90;;;;;;5072501;28;19905;-70
2021/03/14 05:07:10;;;;;;;;;;;8.70;99.90;;;;;;5073650;28;19905;-71
2021/03/14 05:09:36;;;;;;;;;;;8.60;99.90;;;;;;5073452;28;20373;-71
2021/03/14 05:12:03;;;;;;;;;;;8.70;99.90;;;;;;5073023;28;19911;-71
2021/03/14 05:14:28;;;;;;;;;;;8.60;99.90;;;;;;5072974;28;19925;-70
2021/03/14 05:16:54;;;;;;;;;;;8.70;99.90;;;;;;5073621;28;19917;-72
2021/03/14 05:19:20;;;;;;;;;;;8.60;99.90;;;;;;5051946;28;20359;-71
2021/03/14 05:21:46;;;;;;;;;;;8.60;99.90;;;;;;5073260;28;19916;-70
2021/03/14 05:24:12;;;;;;;;;;;8.50;99.90;;;;;;5072824;28;19950;-72
2021/03/14 05:26:43;;;;;;;;;;;8.50;99.90;;;;;;5073304;28;19909;-71
2021/03/14 05:29:12;;;;;;;;;;;8.40;99.90;;;;;;5055403;28;19908;-70
2021/03/14 05:31:38;;;;;;;;;;;8.50;99.90;;;;;;5072464;28;19911;-70
2021/03/14 05:34:05;;;;;;;;;;;8.40;99.90;;;;;;5054242;28;19913;-69
2021/03/14 05:36:31;;;;;;;;;;;8.50;99.90;;;;;;5061442;28;19915;-71
2021/03/14 05:38:58;;;;;;;;;;;8.40;99.90;;;;;;5062199;28;20004;-69
2021/03/14 05:41:24;;;;;;;;;;;8.50;99.90;;;;;;5036482;28;19904;-70
2021/03/14 05:43:49;;;;;;;;;;;8.50;99.90;;;;;;5055037;28;19959;-70
2021/03/14 05:46:15;;;;;;;;;;;8.60;99.90;;;;;;5056346;28;19908;-70
2021/03/14 05:48:41;;;;;;;;;;;8.80;99.90;;;;;;5057187;28;19911;-69
2021/03/14 05:51:07;;;;;;;;;;;8.80;99.90;;;;;;5056381;28;19912;-71
2021/03/14 05:53:33;;;;;;;;;;;8.50;99.90;;;;;;5060111;28;19995;-72
2021/03/14 05:56:02;;;;;;;;;;;8.80;99.90;;;;;;5057275;28;19905;-71
2021/03/14 05:58:28;;;;;;;;;;;8.90;99.90;;;;;;5058108;28;19915;-74
2021/03/14 06:00:54;;;;;;;;;;;9.10;99.90;;;;;;5041685;28;20036;-71
2021/03/14 06:03:20;;;;;;;;;;;9.30;99.90;;;;;;5049540;28;19905;-70
2021/03/14 06:05:45;;;;;;;;;;;9.40;99.90;;;;;;5057031;28;19909;-73
2021/03/14 06:08:11;;;;;;;;;;;9.40;99.90;;;;;;5056027;28;19904;-71
2021/03/14 06:10:37;;;;;;;;;;;9.60;99.90;;;;;;5056324;28;19904;-71
2021/03/14 06:13:02;;;;;;;;;;;9.70;99.90;;;;;;5056297;28;20274;-71
2021/03/14 06:15:28;;;;;;;;;;;9.60;99.90;;;;;;5056201;28;19917;-69
2021/03/14 06:17:53;;;;;;;;;;;9.70;99.90;;;;;;5056182;28;19999;-70
2021/03/14 06:20:33;;;;;;;;;;;9.80;99.90;;;;;;5055985;28;19905;-69
2021/03/14 06:23:05;;;;;;;;;;;9.90;99.90;;;;;;5067452;28;20355;-69
2021/03/14 06:25:31;;;;;;;;;;;10.10;99.90;;;;;;5067091;28;19911;-70
2021/03/14 06:27:56;;;;;;;;;;;10.40;99.90;;;;;;5055981;28;19987;-70
2021/03/14 06:30:26;;;;;;;;;;;10.40;99.90;;;;;;5059927;28;19995;-71
2021/03/14 06:33:05;;;;;;;;;;;11.30;99.90;;;;;;5068361;28;20271;-70
2021/03/14 06:35:41;;;;;;;;;;;10.60;99.90;;;;;;5061714;28;19905;-71
2021/03/14 06:38:20;;;;;;;;;;;10.90;99.90;;;;;;5065306;28;19904;-70
2021/03/14 06:40:46;;;;;;;;;;;10.70;99.90;;;;;;5055947;28;19913;-70
2021/03/14 06:43:12;;;;;;;;;;;10.80;99.90;;;;;;5055858;28;19966;-70
2021/03/14 06:45:39;;;;;;;;;;;10.80;99.90;;;;;;5055630;28;22099;-71
2021/03/14 06:48:05;;;;;;;;;;;10.90;99.90;;;;;;5055944;28;19905;-70
2021/03/14 06:50:38;;;;;;;;;;;10.80;99.90;;;;;;5055264;28;20385;-70
2021/03/14 06:53:12;;;;;;;;;;;10.70;99.90;;;;;;5055660;28;19912;-71
2021/03/14 06:55:39;;;;;;;;;;;10.90;99.90;;;;;;5054693;28;19908;-69
2021/03/14 06:58:19;;;;;;;;;;;10.90;99.90;;;;;;5055561;28;20265;-70
2021/03/14 07:01:04;;;;;;;;;;;10.90;99.90;;;;;;5055817;28;19958;-69
2021/03/14 07:03:29;;;;;;;;;;;10.90;99.90;;;;;;5055553;28;19905;-70
2021/03/14 07:06:14;;;;;;;;;;;10.50;99.90;;;;;;5037597;28;19909;-70
2021/03/14 07:08:39;;;;;;;;;;;10.90;99.90;;;;;;5055663;28;19905;-69
2021/03/14 07:11:05;;;;;;;;;;;10.90;99.90;;;;;;5071075;28;19909;-71
2021/03/14 07:13:31;;;;;;;;;;;11.00;99.90;;;;;;5075190;28;19967;-70
2021/03/14 07:15:58;;;;;;;;;;;11.50;99.90;;;;;;5075419;28;20254;-70
2021/03/14 07:18:24;;;;;;;;;;;11.10;99.90;;;;;;5075194;28;19999;-70
2021/03/14 07:20:49;;;;;;;;;;;11.10;99.90;;;;;;5075411;28;19959;-71
2021/03/14 07:23:16;;;;;;;;;;;11.00;99.90;;;;;;5057017;28;20366;-70
2021/03/14 07:25:43;;;;;;;;;;;11.40;99.90;;;;;;5057374;28;19958;-69
2021/03/14 07:28:10;;;;;;;;;;;11.30;99.90;;;;;;5075007;28;19905;-70
2021/03/14 07:30:35;;;;;;;;;;;11.40;99.90;;;;;;5074540;28;20465;-71
2021/03/14 07:33:01;;;;;;;;;;;11.60;99.90;;;;;;5064173;28;20012;-71
2021/03/14 07:35:27;;;;;;;;;;;11.60;99.90;;;;;;5055263;28;20255;-73
2021/03/14 07:37:53;;;;;;;;;;;;;;;;;;5054791;28;19909;-71
2021/03/14 07:40:20;;;;;;;;;;;12.20;99.90;;;;;;5036807;28;19984;-71
2021/03/14 07:42:46;;;;;;;;;;;12.30;99.90;;;;;;5054670;28;19909;-69
2021/03/14 07:45:12;;;;;;;;;;;12.40;99.90;;;;;;5054325;28;19912;-70
2021/03/14 07:47:39;;;;;;;;;;;12.60;99.90;;;;;;5054758;28;19995;-73
2021/03/14 07:50:25;;;;;;;;;;;13.00;99.90;;;;;;5054563;28;19959;-70
2021/03/14 07:52:51;;;;;;;;;;;13.30;99.90;;;;;;5058733;28;20817;-71
2021/03/14 07:55:21;;;;;;;;;;;13.80;99.90;;;;;;5059350;28;20026;-72
2021/03/14 07:57:47;;;;;;;;;;;14.00;99.90;;;;;;5052489;28;19950;-70
2021/03/14 08:00:13;;;;;;;;;;;;;;;;;;5063261;28;19911;-69
2021/03/14 08:02:39;;;;;;;;;;;;;;;;;;5056119;28;19916;-70
2021/03/14 08:05:05;;;;;;;;;;;;;;;;;;5056572;28;19908;-72
2021/03/14 08:07:33;;;;;;;;;;;14.00;99.90;;;;;;5049042;28;19908;-70
2021/03/14 08:10:00;;;;;;;;;;;;;;;;;;5053152;28;19908;-71
2021/03/14 08:12:35;;;;;;;;;;;14.10;99.90;;;;;;5046216;28;19928;-70
2021/03/14 08:15:01;;;;;;;;;;;14.00;99.90;;;;;;5061903;28;19912;-69
2021/03/14 08:17:34;;;;;;;;;;;14.10;99.90;;;;;;5062345;28;19915;-71
2021/03/14 08:20:00;;;;;;;;;;;14.30;99.90;;;;;;5044659;28;19904;-73
2021/03/14 08:22:38;;;;;;;;;;;14.40;99.90;;;;;;5050684;28;19978;-75
2021/03/14 08:25:04;;;;;;;;;;;;;;;;;;5063750;28;19904;-69
2021/03/14 08:27:30;;;;;;;;;;;;;;;;;;5062935;28;19908;-70
2021/03/14 08:29:56;;;;;;;;;;;14.20;99.90;;;;;;5048697;28;19915;-69
2021/03/14 08:32:22;;;;;;;;;;;14.20;99.90;;;;;;5060193;28;19908;-69
2021/03/14 08:34:48;;;;;;;;;;;14.30;99.90;;;;;;5062116;28;19916;-71
2021/03/14 08:37:21;;;;;;;;;;;14.30;99.90;;;;;;5049480;28;20396;-70
2021/03/14 08:39:47;;;;;;;;;;;;;;;;;;5057718;28;19916;-71
2021/03/14 08:42:13;;;;;;;;;;;;;;;;;;5057854;28;19904;-69
2021/03/14 08:44:40;;;;;;;;;;;;;;;;;;5060813;28;19917;-69
2021/03/14 08:47:05;;;;;;;;;;;14.90;99.90;;;;;;5064656;28;20459;-71
2021/03/14 08:49:31;;;;;;;;;;;14.90;99.90;;;;;;5060826;28;20416;-70
2021/03/14 08:51:57;;;;;;;;;;;14.90;99.90;;;;;;5060834;28;20377;-69
2021/03/14 08:54:24;;;;;;;;;;;14.90;99.90;;;;;;5053694;28;19962;-72
2021/03/14 08:56:53;;;;;;;;;;;15.00;99.90;;;;;;5038741;28;19948;-70
2021/03/14 08:59:20;;;;;;;;;;;15.00;99.90;;;;;;5060872;28;19912;-71
2021/03/14 09:01:50;;;;;;;;;;;15.00;99.90;;;;;;5053803;28;19908;-69
2021/03/14 09:04:17;;;;;;;;;;;14.90;99.90;;;;;;5035285;28;20254;-71
2021/03/14 09:06:43;;;;;;;;;;;14.90;99.90;;;;;;5053165;28;20324;-69
2021/03/14 09:09:09;;;;;;;;;;;14.90;99.90;;;;;;5056895;28;20043;-67
2021/03/14 09:11:35;;;;;;;;;;;14.90;99.90;;;;;;5059064;28;20366;-70
2021/03/14 09:14:17;;;;;;;;;;;14.90;99.90;;;;;;5035936;28;19924;-73
2021/03/14 09:16:43;;;;;;;;;;;15.00;99.90;;;;;;5053628;28;19916;-71
2021/03/14 09:19:08;;;;;;;;;;;15.00;99.90;;;;;;5042626;28;19909;-73
2021/03/14 09:21:54;;;;;;;;;;;15.00;99.90;;;;;;5043229;28;19912;-70
2021/03/14 09:24:32;;;;;;;;;;;15.10;99.90;;;;;;5051927;28;19905;-73
2021/03/14 09:26:59;;;;;;;;;;;15.40;99.90;;;;;;5035323;28;19958;-70
2021/03/14 09:29:42;;;;;;;;;;;15.50;99.90;;;;;;5052974;28;19995;-73
2021/03/14 09:32:14;;;;;;;;;;;15.70;99.90;;;;;;5045997;28;20002;-71
2021/03/14 09:34:39;;;;;;;;;;;15.90;99.90;;;;;;5046624;28;19982;-72
2021/03/14 09:37:05;;;;;;;;;;;16.00;99.90;;;;;;5058674;28;20508;-68
2021/03/14 09:39:31;;;;;;;;;;;16.20;99.90;;;;;;5063119;28;20359;-71
2021/03/14 09:41:56;;;;;;;;;;;16.40;99.90;;;;;;5059264;28;20628;-71
2021/03/14 09:44:22;;;;;;;;;;;16.40;99.90;;;;;;5060252;28;19912;-68
2021/03/14 09:46:59;;;;;;;;;;;16.60;99.90;;;;;;5039932;28;19944;-69
2021/03/14 09:49:25;;;;;;;;;;;16.80;99.90;;;;;;5064951;28;19905;-69
2021/03/14 09:51:54;;;;;;;;;;;17.10;99.90;;;;;;5058089;28;19916;-69
2021/03/14 09:54:21;;;;;;;;;;;17.20;99.90;;;;;;5058915;28;19970;-68
2021/03/14 09:56:56;;;;;;;;;;;17.30;99.90;;;;;;5057790;28;19909;-70
2021/03/14 09:59:23;;;;;;;;;;;17.40;99.90;;;;;;5039784;28;19954;-70
2021/03/14 10:01:50;;;;;;;;;;;17.30;99.90;;;;;;5054097;28;20279;-72
2021/03/14 10:04:15;;;;;;;;;;;17.20;99.90;;;;;;5057863;28;20430;-68
2021/03/14 10:06:41;;;;;;;;;;;17.10;99.90;;;;;;5053780;28;19905;-70
2021/03/14 10:09:07;;;;;;;;;;;17.20;99.90;;;;;;5052004;28;19905;-71
2021/03/14 10:11:33;;;;;;;;;;;17.30;99.90;;;;;;5034338;28;19999;-70
2021/03/14 10:13:58;;;;;;;;;;;17.50;99.90;;;;;;5052266;28;20347;-76
2021/03/14 10:16:27;;;;;;;;;;;17.60;99.90;;;;;;5021016;28;20015;-69
2021/03/14 10:18:57;;;;;;;;;;;17.60;99.90;;;;;;5032788;28;19909;-72
2021/03/14 10:21:26;;;;;;;;;;;17.70;99.90;;;;;;5015004;28;20309;-73
2021/03/14 10:24:12;;;;;;;;;;;17.70;98.50;;;;;;5032809;28;19924;-72
2021/03/14 10:26:56;;;;;;;;;;;17.60;99.90;;;;;;5032570;28;20355;-68
2021/03/14 10:29:36;;;;;;;;;;;17.60;99.90;;;;;;5034180;28;19928;-70
2021/03/14 10:32:02;;;;;;;;;;;17.60;99.90;;;;;;5049908;28;19958;-71
2021/03/14 10:34:27;;;;;;;;;;;17.50;98.80;;;;;;5044783;28;20003;-67
2021/03/14 10:36:53;;;;;;;;;;;17.50;98.60;;;;;;5041524;28;19909;-70
2021/03/14 10:39:26;;;;;;;;;;;17.50;99.90;;;;;;5048701;28;20306;-70
2021/03/14 10:41:53;;;;;;;;;;;17.50;99.90;;;;;;5035879;28;19912;-69
2021/03/14 10:44:23;;;;;;;;;;;17.60;99.90;;;;;;5038909;28;19988;-69
2021/03/14 10:46:50;;;;;;;;;;;17.60;99.90;;;;;;5043100;28;19909;-70
2021/03/14 10:49:15;;;;;;;;;;;17.60;99.90;;;;;;5036750;28;20504;-73
2021/03/14 10:51:42;;;;;;;;;;;17.70;99.90;;;;;;5055726;28;20350;-70
2021/03/14 10:54:09;;;;;;;;;;;17.70;99.90;;;;;;5041430;28;19939;-73
2021/03/14 10:56:38;;;;;;;;;;;17.70;99.90;;;;;;5046642;28;19909;-70
2021/03/14 10:59:04;;;;;;;;;;;17.80;99.90;;;;;;5035522;28;20359;-72
2021/03/14 11:01:36;;;;;;;;;;;17.90;99.90;;;;;;5035551;28;19905;-71
2021/03/14 11:04:06;;;;;;;;;;;17.90;99.80;;;;;;5035684;28;19905;-70
2021/03/14 11:06:32;;;;;;;;;;;17.90;96.20;;;;;;5038098;28;20343;-70
2021/03/14 11:09:03;;;;;;;;;;;17.90;99.90;;;;;;5048575;28;19913;-74
2021/03/14 11:11:37;;;;;;;;;;;17.80;99.90;;;;;;5046970;28;20412;-77
2021/03/14 11:14:22;;;;;;;;;;;17.90;99.90;;;;;;5024575;28;19913;-72
2021/03/14 11:17:01;;;;;;;;;;;17.90;97.70;;;;;;5023166;28;20368;-76
2021/03/14 11:19:27;;;;;;;;;;;17.90;98.90;;;;;;5047144;28;19963;-75
2021/03/14 11:21:53;;;;;;;;;;;18.00;99.90;;;;;;5031944;28;19912;-75
2021/03/14 11:24:18;;;;;;;;;;;18.00;99.90;;;;;;5036572;28;19909;-76
2021/03/14 11:26:44;;;;;;;;;;;18.10;99.90;;;;;;5038088;28;19935;-77
2021/03/14 11:29:10;;;;;;;;;;;18.00;92.30;;;;;;5033494;28;19905;-72
2021/03/14 11:31:36;;;;;;;;;;;18.10;99.90;;;;;;5035059;28;19909;-72
2021/03/14 11:34:02;;;;;;;;;;;18.10;99.90;;;;;;5035603;28;20370;-74
2021/03/14 11:36:27;;;;;;;;;;;18.10;98.60;;;;;;5042535;28;19943;-76
2021/03/14 11:38:53;;;;;;;;;;;18.20;97.00;;;;;;5023216;28;19909;-75
2021/03/14 11:41:19;;;;;;;;;;;18.10;94.80;;;;;;5039150;28;19917;-71
2021/03/14 11:43:44;;;;;;;;;;;18.20;94.20;;;;;;5041936;28;19942;-73
2021/03/14 11:46:10;;;;;;;;;;;18.20;93.30;;;;;;5038541;28;19916;-74
2021/03/14 11:48:36;;;;;;;;;;;18.20;95.30;;;;;;5037009;28;20177;-74
2021/03/14 11:51:01;;;;;;;;;;;18.10;95.10;;;;;;5039345;28;19905;-74
2021/03/14 11:53:27;;;;;;;;;;;18.10;93.20;;;;;;5043015;28;20267;-76
2021/03/14 11:55:52;;;;;;;;;;;18.10;95.40;;;;;;5039162;28;20354;-75
2021/03/14 11:58:19;;;;;;;;;;;18.20;99.90;;;;;;5033986;28;19909;-72
2021/03/14 12:00:45;;;;;;;;;;;18.10;99.90;;;;;;5021894;28;19909;-74
2021/03/14 12:03:11;;;;;;;;;;;18.20;99.60;;;;;;5035967;28;19909;-72
2021/03/14 12:05:36;;;;;;;;;;;18.20;99.90;;;;;;5034305;28;19905;-72
2021/03/14 12:08:02;;;;;;;;;;;18.40;99.90;;;;;;5034763;28;19988;-78
2021/03/14 12:10:28;;;;;;;;;;;18.40;97.50;;;;;;5032597;28;19909;-74
2021/03/14 12:12:54;;;;;;;;;;;18.60;98.50;;;;;;5026706;28;20355;-73
2021/03/14 12:15:19;;;;;;;;;;;18.10;93.20;;;;;;5038239;28;19916;-76
2021/03/14 12:17:45;;;;;;;;;;;18.80;90.00;;;;;;5053051;28;19920;-74
2021/03/14 12:20:12;;;;;;;;;;;18.80;82.50;;;;;;5035201;28;19917;-73
2021/03/14 12:22:38;;;;;;;;;;;18.90;86.50;;;;;;5053156;28;19912;-75
2021/03/14 12:25:05;;;;;;;;;;;18.40;89.90;;;;;;5053256;28;19908;-71
2021/03/14 12:27:31;;;;;;;;;;;19.10;89.30;;;;;;5059309;28;19987;-73
2021/03/14 12:29:56;;;;;;;;;;;19.10;87.50;;;;;;5067919;28;19955;-72
2021/03/14 12:32:22;;;;;;;;;;;19.00;84.20;;;;;;5066268;28;20310;-71
2021/03/14 12:34:48;;;;;;;;;;;19.10;82.40;;;;;;5061744;28;19916;-72
2021/03/14 12:37:13;;;;;;;;;;;19.20;81.00;;;;;;5054627;28;19908;-72
2021/03/14 12:39:39;;;;;;;;;;;17.60;81.80;;;;;;5060254;28;20278;-71
2021/03/14 12:42:05;;;;;;;;;;;19.10;83.10;;;;;;5051265;28;19909;-73
2021/03/14 12:44:30;;;;;;;;;;;19.10;86.20;;;;;;5058811;28;19987;-71
2021/03/14 12:46:56;;;;;;;;;;;19.20;86.30;;;;;;5035246;28;20263;-73
2021/03/14 12:49:21;;;;;;;;;;;19.20;84.20;;;;;;5049006;28;20309;-72
2021/03/14 12:51:47;;;;;;;;;;;19.40;73.00;;;;;;5053877;28;19950;-73
2021/03/14 12:54:13;;;;;;;;;;;19.40;74.20;;;;;;5051816;28;19916;-75
2021/03/14 12:56:38;;;;;;;;;;;19.40;72.10;;;;;;5051962;28;19908;-72
2021/03/14 12:59:04;;;;;;;;;;;19.60;73.80;;;;;;5051809;28;19911;-74
2021/03/14 13:01:30;;;;;;;;;;;19.60;78.40;;;;;;5059710;28;19909;-70
2021/03/14 13:03:55;;;;;;;;;;;19.80;83.80;;;;;;5041496;28;19914;-73
2021/03/14 13:06:21;;;;;;;;;;;19.70;82.40;;;;;;5057148;28;19962;-71
2021/03/14 13:08:46;;;;;;;;;;;19.70;78.30;;;;;;5057119;28;19962;-72
2021/03/14 13:11:12;;;;;;;;;;;19.70;80.10;;;;;;5059699;28;20022;-77
2021/03/14 13:13:38;;;;;;;;;;;19.60;80.20;;;;;;5052025;28;20341;-74
2021/03/14 13:16:03;;;;;;;;;;;19.60;78.10;;;;;;5053132;28;19921;-72
2021/03/14 13:18:29;;;;;;;;;;;19.40;83.00;;;;;;5053773;28;19909;-73
2021/03/14 13:20:55;;;;;;;;;;;19.50;83.90;;;;;;5051923;28;19908;-71
2021/03/14 13:23:20;;;;;;;;;;;19.50;83.70;;;;;;5051555;28;20416;-71
2021/03/14 13:25:46;;;;;;;;;;;19.30;80.90;;;;;;5055236;28;20390;-71
2021/03/14 13:28:12;;;;;;;;;;;19.20;80.40;;;;;;5052093;28;19909;-71
2021/03/14 13:30:38;;;;;;;;;;;19.10;82.90;;;;;;5057605;28;19905;-70
2021/03/14 13:33:04;;;;;;;;;;;19.00;81.80;;;;;;5059281;28;19909;-70
2021/03/14 13:35:30;;;;;;;;;;;18.90;83.30;;;;;;5062766;28;19916;-71
2021/03/14 13:37:55;;;;;;;;;;;18.90;87.20;;;;;;5052275;28;19909;-71
2021/03/14 13:40:21;;;;;;;;;;;18.10;82.00;;;;;;5043585;28;19961;-73
2021/03/14 13:42:47;;;;;;;;;;;18.80;85.10;;;;;;5051952;28;20050;-73
2021/03/14 13:45:13;;;;;;;;;;;18.80;84.90;;;;;;5034018;28;19995;-73
2021/03/14 13:47:38;;;;;;;;;;;18.70;83.70;;;;;;5034151;28;19991;-73
2021/03/14 13:50:05;;;;;;;;;;;18.60;77.90;;;;;;5046845;28;20457;-75
2021/03/14 13:52:30;;;;;;;;;;;18.60;80.00;;;;;;5051081;28;20004;-73
2021/03/14 13:54:56;;;;;;;;;;;18.40;80.50;;;;;;5067774;28;19943;-70
2021/03/14 13:57:22;;;;;;;;;;;18.60;83.60;;;;;;5052595;28;20042;-74
2021/03/14 13:59:47;;;;;;;;;;;18.50;85.90;;;;;;5052019;28;20373;-72
2021/03/14 14:02:13;;;;;;;;;;;18.50;84.20;;;;;;5054820;28;19909;-72
2021/03/14 14:04:38;;;;;;;;;;;18.50;88.80;;;;;;5054272;28;19916;-75
2021/03/14 14:07:04;;;;;;;;;;;18.50;86.70;;;;;;5038443;28;19943;-72
2021/03/14 14:09:30;;;;;;;;;;;18.50;87.80;;;;;;5055389;28;20267;-74
2021/03/14 14:11:56;;;;;;;;;;;18.30;89.70;;;;;;5055223;28;19916;-74
2021/03/14 14:14:21;;;;;;;;;;;18.20;89.20;;;;;;5055534;28;19912;-74
2021/03/14 14:16:47;;;;;;;;;;;18.20;90.40;;;;;;5053062;28;20402;-73
2021/03/14 14:19:13;;;;;;;;;;;18.00;91.40;;;;;;5055262;28;19909;-73
2021/03/14 14:21:38;;;;;;;;;;;17.80;91.40;;;;;;5055487;28;19904;-73
2021/03/14 14:24:05;;;;;;;;;;;17.50;92.30;;;;;;5054034;28;19912;-72
2021/03/14 14:26:31;;;;;;;;;;;17.30;96.60;;;;;;5053883;28;19912;-73